Flight Track Log - Related Links

Times and Time Zones

All times are in EDT time to prevent confusion due to time zone crossing. See the B-18725 flight status page for this flight to view local times or setup timezone preferences in your user account.

Time Position Orientation Groundspeed Altitude Reporting Facility
EDT Latitude Longitude Course Direction KTS MPH feet Rate Location/Type
Mon 03:44:37 AM 61.2100 -150.0200 346° North 164 189 1,000  Level FlightAware ADS-B
Mon 03:44:52 AM 61.2180 -150.0330 322° Northwest 166 191 1,500 2,000 Climbing FlightAware ADS-B
Mon 03:45:07 AM 61.2270 -150.0530 313° West 171 197 2,000 1,600 Climbing FlightAware ADS-B
Mon 03:45:22 AM 61.2290 -150.0740 281° West 178 205 2,300 1,800 Climbing FlightAware ADS-B
Mon 03:45:47 AM 61.2300 -150.1190 273° West 176 203 3,200 1,650 Climbing FlightAware ADS-B
Mon 03:46:02 AM 61.2310 -150.1430 275° West 188 216 3,400 800 Climbing FlightAware ADS-B
Mon 03:46:32 AM 61.2340 -150.2040 276° West 222 255 3,800 982 Climbing FlightAware ADS-B
Mon 03:46:57 AM 61.2360 -150.2610 274° West 248 285 4,300 1,636 Climbing FlightAware ADS-B
Mon 03:47:27 AM 61.2390 -150.3370 275° West 268 308 5,300 2,300 Climbing FlightAware ADS-B
Mon 03:47:57 AM 61.2410 -150.4090 273° West 275 316 6,600 2,727 Climbing FlightAware ADS-B
Mon 03:48:22 AM 61.2420 -150.4770 272° West 275 316 7,800 2,640 Climbing FlightAware ADS-B
Mon 03:48:47 AM 61.2450 -150.5440 275° West 281 323 8,800 2,229 Climbing FlightAware ADS-B
Mon 03:49:32 AM 61.2490 -150.6630 274° West 298 343 10,400 1,694 Climbing FlightAware ADS-B
Mon 03:50:12 AM 61.2530 -150.7870 274° West 337 388 11,200 1,694 Climbing FlightAware ADS-B
Mon 03:50:57 AM 61.2570 -150.9430 273° West 364 419 12,800 2,467 Climbing FlightAware ADS-B
Mon 03:51:42 AM 61.2610 -151.1000 273° West 375 432 14,900 2,824 Climbing FlightAware ADS-B
Mon 03:52:22 AM 61.2650 -151.2460 273° West 388 447 16,800 2,850 Climbing FlightAware ADS-B
Mon 03:53:02 AM 61.2690 -151.3980 273° West 398 458 18,700 2,753 Climbing FlightAware ADS-B
Mon 03:53:47 AM 61.2740 -151.5690 274° West 406 467 20,700 2,612 Climbing FlightAware ADS-B
Mon 03:54:27 AM 61.2770 -151.7280 272° West 414 476 22,400 2,400 Climbing FlightAware ADS-B
Mon 03:55:07 AM 61.2810 -151.8880 273° West 421 484 23,900 2,188 Climbing FlightAware ADS-B
Mon 03:55:52 AM 61.2850 -152.0700 273° West 432 497 25,500 2,118 Climbing FlightAware ADS-B
Mon 03:56:32 AM 61.2850 -152.2390 270° West 439 505 26,900 1,976 Climbing FlightAware ADS-B
Mon 03:57:17 AM 61.2850 -152.4280 270° West 447 514 28,300 1,800 Climbing FlightAware ADS-B
Mon 03:58:42 AM 61.2860 -152.7990 270° West 454 522 30,800 1,826 Climbing FlightAware ADS-B
Mon 03:59:12 AM 61.2860 -152.9340 270° West 453 521 31,800 1,650 Climbing FlightAware ADS-B
Mon 04:00:02 AM 61.2860 -153.1520 270° West 455 524 33,000 1,326 Climbing FlightAware ADS-B
Mon 04:00:47 AM 61.2850 -153.3470 269° West 457 526 33,900 706 Climbing FlightAware ADS-B
Mon 04:01:27 AM 61.2850 -153.5230 270° West 457 526 34,000 75 Climbing FlightAware ADS-B
Mon 04:02:07 AM 61.2840 -153.6950 269° West 455 524 34,000  Level FlightAware ADS-B
Mon 04:03:22 AM 61.2810 -154.0200 269° West 451 519 34,000  Level FlightAware ADS-B
Mon 04:05:42 AM 61.2760 -154.5910 269° West 448 516 34,000  Level FlightAware ADS-B
Mon 04:06:22 AM 61.2750 -154.7380 269° West 448 516 34,000  Level FlightAware ADS-B
Mon 04:07:17 AM 61.2690 -155.0140 268° West 448 516 34,000  Level FlightAware ADS-B
Mon 04:07:57 AM 61.2670 -155.1610 268° West 448 516 34,000  Level FlightAware ADS-B
Mon 04:08:37 AM 61.2640 -155.3070 268° West 448 516 34,000  Level FlightAware ADS-B
Mon 04:09:17 AM 61.2620 -155.4540 268° West 448 516 34,000  Level FlightAware ADS-B
Mon 04:10:07 AM 61.2590 -155.6370 268° West 448 516 34,000  Level FlightAware ADS-B
Mon 04:10:47 AM 61.2560 -155.7830 268° West 448 516 34,000  Level FlightAware ADS-B
Mon 04:11:27 AM 61.2540 -155.9300 268° West 448 516 34,000  Level FlightAware ADS-B
Mon 04:12:07 AM 61.2510 -156.0760 268° West 448 516 34,000  Level FlightAware ADS-B
Mon 04:12:47 AM 61.2490 -156.2230 268° West 448 516 34,000  Level FlightAware ADS-B
Mon 04:13:27 AM 61.2460 -156.3690 268° West 448 516 34,000  Level FlightAware ADS-B
Mon 04:14:17 AM 61.2430 -156.5520 268° West 448 516 34,000  Level FlightAware ADS-B
Mon 04:14:57 AM 61.2410 -156.6980 268° West 448 516 34,000  Level FlightAware ADS-B
Mon 04:15:37 AM 61.2380 -156.8450 268° West 448 516 34,000  Level FlightAware ADS-B
Mon 04:16:17 AM 61.2360 -156.9910 268° West 448 516 34,000 632 Level FlightAware ADS-B
Mon 04:17:12 AM 61.2500 -157.5667 268° West 450 518 35,000 522 Climbing Anchorage Center
Mon 04:18:12 AM 61.2500 -157.8167 270° West 450 518 35,000  Level Anchorage Center
Mon 04:19:12 AM 61.2333 -158.0833 263° West 450 518 35,000  Level Anchorage Center
Mon 04:20:12 AM 61.2333 -158.3500 270° West 450 518 35,000  Level Anchorage Center
Mon 04:21:12 AM 61.2333 -158.6000 270° West 450 518 35,000  Level Anchorage Center
Mon 04:22:13 AM 61.2333 -158.8667 270° West 440 506 35,000  Level Anchorage Center
Mon 04:23:13 AM 61.2333 -159.1333 270° West 450 518 35,000  Level Anchorage Center
Mon 04:24:13 AM 61.2167 -159.3833 262° West 440 506 35,000  Level Anchorage Center
Mon 04:25:13 AM 61.2167 -159.6500 270° West 450 518 35,000  Level Anchorage Center
Mon 04:26:13 AM 61.2167 -159.9000 270° West 450 518 35,000  Level Anchorage Center
Mon 04:27:13 AM 61.2167 -160.1667 270° West 450 518 35,000  Level Anchorage Center
Mon 04:28:13 AM 61.2000 -160.4167 262° West 440 506 35,000  Level Anchorage Center
Mon 04:29:13 AM 61.2000 -160.6833 270° West 440 506 35,000  Level Anchorage Center
Mon 04:30:13 AM 61.1833 -160.9500 263° West 440 506 35,000  Level Anchorage Center
Mon 04:31:13 AM 61.1833 -161.2000 270° West 440 506 35,000  Level Anchorage Center
Mon 04:32:13 AM 61.1667 -161.4500 262° West 440 506 35,000  Level Anchorage Center
Mon 04:33:13 AM 61.1667 -161.7167 270° West 440 506 35,000  Level Anchorage Center
Mon 04:34:14 AM 61.1500 -161.9667 262° West 440 506 35,000  Level Anchorage Center
Mon 04:35:14 AM 61.1333 -162.2167 262° West 440 506 35,000  Level Anchorage Center
Mon 04:36:14 AM 61.1333 -162.4667 270° West 430 495 35,000  Level Anchorage Center
Mon 04:37:14 AM 61.1167 -162.7333 263° West 440 506 35,000  Level Anchorage Center
Mon 04:38:14 AM 61.1000 -162.9833 262° West 430 495 35,000  Level Anchorage Center
Mon 04:39:14 AM 61.0833 -163.2333 262° West 440 506 35,000  Level Anchorage Center
Mon 04:40:14 AM 61.0333 -163.4833 248° West 460 529 35,000  Level Anchorage Center
Mon 04:41:15 AM 61.0000 -163.7333 255° West 460 529 35,000  Level Anchorage Center
Mon 04:42:15 AM 60.9667 -164.0000 256° West 460 529 35,000  Level Anchorage Center
Mon 04:43:15 AM 60.9333 -164.2500 255° West 450 518 35,000  Level Anchorage Center
Mon 04:44:15 AM 60.8833 -164.5000 248° West 460 529 35,000  Level Anchorage Center
Mon 04:45:15 AM 60.8500 -164.7500 255° West 450 518 35,000  Level Anchorage Center
Mon 04:46:15 AM 60.8167 -165.0000 255° West 450 518 35,000  Level Anchorage Center
Mon 04:47:15 AM 60.7667 -165.2500 248° West 460 529 35,000  Level Anchorage Center
Mon 04:48:15 AM 60.7333 -165.5000 255° West 450 518 35,000  Level Anchorage Center
Mon 04:49:15 AM 60.7000 -165.7500 255° West 460 529 35,000  Level Anchorage Center
Mon 04:50:15 AM 60.6500 -166.0000 248° West 460 529 35,000  Level Anchorage Center
Mon 04:51:15 AM 60.6167 -166.2500 255° West 460 529 35,000  Level Anchorage Center
Mon 04:52:15 AM 60.5667 -166.5000 248° West 460 529 35,000  Level Anchorage Center
Mon 04:53:15 AM 60.5333 -166.7500 255° West 460 529 35,000  Level Anchorage Center
Mon 04:54:15 AM 60.4833 -167.0000 248° West 460 529 35,000  Level Anchorage Center
Mon 04:55:22 AM 60.4333 -167.2500 248° West 460 529 35,000  Level Anchorage Center
Mon 04:56:22 AM 60.4000 -167.4833 254° West 460 529 35,000  Level Anchorage Center
Mon 04:57:23 AM 60.3500 -167.7333 248° West 470 541 35,000  Level Anchorage Center
Mon 04:58:23 AM 60.3167 -167.9833 255° West 460 529 35,000  Level Anchorage Center
Mon 04:59:23 AM 60.2667 -168.2333 248° West 460 529 35,000  Level Anchorage Center
Mon 05:00:23 AM 60.2167 -168.4667 247° West 450 518 35,000  Level Anchorage Center
Mon 05:01:23 AM 60.1667 -168.7167 248° West 450 518 35,000  Level Anchorage Center
Mon 05:02:23 AM 60.1333 -168.9500 254° West 460 529 35,000  Level Anchorage Center
Mon 05:03:23 AM 60.0833 -169.2000 248° West 460 529 35,000  Level Anchorage Center
Mon 05:04:23 AM 60.0333 -169.4333 247° West 460 529 35,000 50 Level Anchorage Center
Mon 05:05:23 AM 59.9833 -169.6667 247° West 460 529 35,100 500 Climbing Anchorage Center
Mon 05:06:23 AM 59.9333 -169.9167 248° West 460 529 36,000 450 Climbing Anchorage Center
Mon 05:07:23 AM 59.9000 -170.1500 254° West 460 529 36,000  Level Anchorage Center
Mon 05:08:23 AM 59.8500 -170.4000 248° West 480 552 36,000  Level Anchorage Center
Mon 05:09:23 AM 59.8000 -170.6333 247° West 450 518 36,000  Level Anchorage Center
Mon 05:10:23 AM 59.7500 -170.8833 248° West 460 529 36,000  Level Anchorage Center
Mon 05:11:23 AM 59.7000 -171.1167 247° West 460 529 36,000  Level Anchorage Center
Mon 05:12:23 AM 59.6500 -171.3667 248° West 470 541 36,000  Level Anchorage Center
Mon 05:13:24 AM 59.6000 -171.6000 247° West 470 541 36,000  Level Anchorage Center
Mon 05:14:24 AM 59.5500 -171.8333 247° West 470 541 36,000  Level Anchorage Center
Mon 05:15:24 AM 59.5000 -172.0667 247° West 470 541 36,000  Level Anchorage Center
Mon 05:16:24 AM 59.4500 -172.3167 249° West 470 541 36,000  Level Anchorage Center
Mon 05:17:24 AM 59.4000 -172.5500 247° West 470 541 36,000  Level Anchorage Center
Mon 05:18:24 AM 59.3500 -172.8000 249° West 470 541 36,000  Level Anchorage Center
Mon 05:19:24 AM 59.3000 -173.0333 247° West 470 541 36,000  Level Anchorage Center
Mon 05:20:24 AM 59.2500 -173.2667 247° West 480 552 36,000  Level Anchorage Center
Mon 05:21:24 AM 59.2000 -173.5167 249° West 480 552 36,000  Level Anchorage Center
Mon 05:22:24 AM 59.1500 -173.7500 247° West 470 541 36,000  Level Anchorage Center
Mon 05:23:24 AM 59.1000 -173.9833 247° West 470 541 36,000  Level Anchorage Center
Mon 05:24:24 AM 59.0333 -174.2167 241° Southwest 470 541 36,000  Level Anchorage Center
Mon 05:25:24 AM 58.9833 -174.4667 249° West 480 552 36,000  Level Anchorage Center
Mon 05:26:24 AM 58.9333 -174.7000 248° West 480 552 36,000  Level Anchorage Center
Mon 05:27:24 AM 58.8833 -174.9333 248° West 470 541 36,000  Level Anchorage Center
Mon 05:28:24 AM 58.8333 -175.1667 248° West 480 552 36,000  Level Anchorage Center
Mon 05:29:24 AM 58.7833 -175.4000 248° West 470 541 36,000  Level Anchorage Center
Mon 05:30:25 AM 58.7167 -175.6333 241° Southwest 470 541 36,000  Level Anchorage Center
Mon 05:31:25 AM 58.6667 -175.8667 248° West 480 552 36,000  Level Anchorage Center
Mon 05:32:25 AM 58.6167 -176.1000 248° West 470 541 36,000  Level Anchorage Center
Mon 05:33:25 AM 58.5500 -176.3333 241° Southwest 470 541 36,000  Level Anchorage Center
Mon 05:34:25 AM 58.5000 -176.5667 248° West 480 552 36,000  Level Anchorage Center
Mon 05:35:25 AM 58.4500 -176.8000 248° West 480 552 36,000  Level Anchorage Center
Mon 05:36:25 AM 58.3833 -177.0333 241° Southwest 480 552 36,000  Level Anchorage Center
Mon 05:38:25 AM 58.2667 -177.5000 245° Southwest 470 541 36,000  Level Anchorage Center
Mon 05:40:00 AM 58.1826 -177.8396 245° Southwest  Level FlightAware Approximate
Mon 05:47:00 AM 57.8002 -179.3218 245° Southwest  Level FlightAware Approximate
Mon 05:48:00 AM 57.7442 -179.5310 243° Southwest  Level FlightAware Approximate
Mon 05:49:00 AM 57.6878 -179.7395 243° Southwest  Level FlightAware Approximate
Mon 05:50:00 AM 57.6311 -179.9474 243° Southwest  Level FlightAware Approximate
Mon 05:50:13 AM 57.5667 179.8000 242° Southwest 495 570 36,000  Level Anchorage Center
Mon 05:51:00 AM 57.5730 179.8464 242° Southwest  Level FlightAware Approximate
Mon 05:52:00 AM 57.5143 179.6412 242° Southwest  Level FlightAware Approximate
Mon 05:53:00 AM 57.4552 179.4366 242° Southwest  Level FlightAware Approximate
Mon 05:54:00 AM 57.3958 179.2328 242° Southwest  Level FlightAware Approximate
Mon 05:55:00 AM 57.3360 179.0295 241° Southwest  Level FlightAware Approximate
Mon 05:56:00 AM 57.1740 178.4589 241° Southwest 495 570 36,000  Level FlightAware Transoceanic
Mon 05:57:00 AM 57.1072 178.2382 241° Southwest 495 570 36,000  Level FlightAware Transoceanic
Mon 05:58:00 AM 57.0400 178.0183 241° Southwest 495 570 36,000  Level FlightAware Transoceanic
Mon 05:59:00 AM 56.9724 177.7991 240° Southwest 495 570 36,000  Level FlightAware Transoceanic
Mon 06:00:00 AM 56.9044 177.5808 240° Southwest 495 570 36,000  Level FlightAware Transoceanic
Mon 06:01:00 AM 56.8360 177.3633 240° Southwest 495 570 36,000  Level FlightAware Transoceanic
Mon 06:01:24 AM 56.8333 177.3500 240° Southwest 494 568 36,000  Level Anchorage Center
Mon 06:02:00 AM 56.7673 177.1465 240° Southwest 495 570 36,000  Level FlightAware Transoceanic
Mon 06:03:00 AM 56.6982 176.9306 240° Southwest 495 570 36,000  Level FlightAware Transoceanic
Mon 06:04:00 AM 56.6287 176.7154 239° Southwest 495 570 36,000  Level FlightAware Transoceanic
Mon 06:05:00 AM 56.5589 176.5011 239° Southwest 495 570 36,000  Level FlightAware Transoceanic
Mon 06:06:00 AM 56.4887 176.2875 239° Southwest 495 570 36,000  Level FlightAware Transoceanic
Mon 06:07:00 AM 56.4159 176.0647 239° Southwest 494 568 36,000  Level FlightAware Transoceanic
Mon 06:08:00 AM 56.3451 175.8532 239° Southwest 494 568 36,000  Level FlightAware Transoceanic
Mon 06:08:17 AM 56.3333 175.8333 238° Southwest 510 587 36,000  Level Anchorage Center
Mon 06:09:00 AM 56.2738 175.6425 239° Southwest 494 568 36,000  Level FlightAware Transoceanic
Mon 06:10:00 AM 56.2023 175.4327 238° Southwest 494 568 36,000  Level FlightAware Transoceanic
Mon 06:10:17 AM 56.1833 175.4333 236° Southwest 490 564 36,000  Level Anchorage Center
Mon 06:11:00 AM 56.1304 175.2236 238° Southwest 494 568 36,000  Level FlightAware Transoceanic
Mon 06:11:17 AM 56.1333 175.2333 246° West 510 587 36,000  Level Anchorage Center
Mon 06:12:00 AM 56.0581 175.0152 238° Southwest 494 568 36,000  Level FlightAware Transoceanic
Mon 06:12:17 AM 56.0500 175.0000 237° Southwest 500 575 36,000  Level Anchorage Center
Mon 06:13:00 AM 55.9855 174.8077 238° Southwest 494 568 36,000  Level FlightAware Transoceanic
Mon 06:13:17 AM 55.9833 174.8167 237° Southwest 510 587 36,000  Level Anchorage Center
Mon 06:14:17 AM 55.9000 174.5833 238° Southwest 500 575 36,000  Level Anchorage Center
Mon 06:15:17 AM 55.8167 174.3667 236° Southwest 500 575 36,000  Level Anchorage Center
Mon 06:16:17 AM 55.7500 174.1667 239° Southwest 510 587 36,000  Level Anchorage Center
Mon 06:17:17 AM 55.6667 173.9500 236° Southwest 500 575 36,000  Level Anchorage Center
Mon 06:18:17 AM 55.6000 173.7667 237° Southwest 500 575 36,000  Level Anchorage Center
Mon 06:19:17 AM 55.5167 173.5500 236° Southwest 500 575 36,000  Level Anchorage Center
Mon 06:20:18 AM 55.4500 173.3667 237° Southwest 500 575 36,000  Level Anchorage Center
Mon 06:21:18 AM 55.3667 173.1500 236° Southwest 500 575 36,000  Level Anchorage Center
Mon 06:22:18 AM 55.2833 172.9333 236° Southwest 500 575 36,000  Level Anchorage Center
Mon 06:23:18 AM 55.2167 172.7500 238° Southwest 500 575 36,000  Level Anchorage Center
Mon 06:24:18 AM 55.1333 172.5333 236° Southwest 500 575 36,000  Level Anchorage Center
Mon 06:25:18 AM 55.0667 172.3667 235° Southwest 490 564 36,000  Level Anchorage Center
Mon 06:26:18 AM 54.9833 172.1333 238° Southwest 500 575 36,000  Level Anchorage Center
Mon 06:27:18 AM 54.9167 171.9667 235° Southwest 490 564 36,000  Level Anchorage Center
Mon 06:28:18 AM 54.8333 171.7667 234° Southwest 480 552 36,000  Level Anchorage Center
Mon 06:29:18 AM 54.7667 171.5833 238° Southwest 490 564 36,000  Level Anchorage Center
Mon 06:30:18 AM 54.6833 171.3833 234° Southwest 490 564 36,000  Level Anchorage Center
Mon 06:31:18 AM 54.5833 171.1833 229° Southwest 490 564 36,000  Level Anchorage Center
Mon 06:32:18 AM 54.5167 171.0000 238° Southwest 490 564 36,000  Level Anchorage Center
Mon 06:33:19 AM 54.4333 170.8000 234° Southwest 480 552 36,000  Level Anchorage Center
Mon 06:34:19 AM 54.3667 170.6333 236° Southwest 490 564 36,000  Level Anchorage Center
Mon 06:35:19 AM 54.2667 170.4333 229° Southwest 490 564 36,000  Level Anchorage Center
Mon 06:36:18 AM 54.2000 170.2667 236° Southwest 490 564 36,000  Level Anchorage Center
Mon 06:37:18 AM 54.1167 170.0667 235° Southwest 490 564 36,000  Level Anchorage Center
Mon 06:38:18 AM 54.0167 169.8667 230° Southwest 490 564 36,000 198 Level Anchorage Center
Mon 06:39:19 AM 53.9500 169.7000 236° Southwest 490 564 36,400 500 Climbing Anchorage Center
Mon 06:40:18 AM 53.8667 169.5000 235° Southwest 490 564 37,000 303 Climbing Anchorage Center
Mon 06:41:18 AM 53.8000 169.3500 233° Southwest 490 564 37,000  Level Anchorage Center
Mon 06:42:19 AM 53.7000 169.1500 230° Southwest 510 587 37,000  Level Anchorage Center
Mon 06:43:19 AM 53.6500 168.9667 245° Southwest 510 587 37,000  Level Anchorage Center
Mon 06:44:19 AM 53.5833 168.7500 243° Southwest 480 552 37,000  Level Anchorage Center
Mon 06:45:19 AM 53.5167 168.5833 236° Southwest 490 564 37,000  Level Anchorage Center
Mon 06:46:19 AM 53.4500 168.3667 243° Southwest 520 598 37,000  Level Anchorage Center
Mon 06:48:00 AM 53.3417 168.0649 240° Southwest  Level FlightAware Approximate
Mon 06:55:00 AM 52.8959 166.8133 240° Southwest  Level FlightAware Approximate
Mon 06:56:00 AM 52.8312 166.6366 239° Southwest  Level FlightAware Approximate
Mon 06:57:00 AM 52.7662 166.4605 239° Southwest  Level FlightAware Approximate
Mon 06:58:00 AM 52.7009 166.2848 239° Southwest  Level FlightAware Approximate
Mon 06:59:00 AM 52.6354 166.1097 238° Southwest  Level FlightAware Approximate
Mon 07:00:00 AM 52.5696 165.9352 238° Southwest  Level FlightAware Approximate
Mon 07:01:00 AM 52.5033 165.7614 238° Southwest  Level FlightAware Approximate
Mon 07:02:00 AM 52.4365 165.5884 238° Southwest  Level FlightAware Approximate
Mon 07:03:00 AM 52.3695 165.4159 238° Southwest  Level FlightAware Approximate
Mon 07:04:00 AM 52.3022 165.2439 237° Southwest  Level FlightAware Approximate
Mon 07:05:00 AM 52.2347 165.0724 237° Southwest  Level FlightAware Approximate
Mon 07:06:00 AM 52.1670 164.9014 237° Southwest  Level FlightAware Approximate
Mon 07:07:00 AM 52.0989 164.7310 237° Southwest  Level FlightAware Approximate
Mon 07:08:00 AM 52.0307 164.5611 237° Southwest  Level FlightAware Approximate
Mon 07:09:00 AM 51.9622 164.3917 237° Southwest  Level FlightAware Approximate
Mon 07:10:00 AM 51.8935 164.2228 237° Southwest  Level FlightAware Approximate
Mon 07:10:14 AM 51.7833 163.9500 234° Southwest 466 536 37,000  Level Anchorage Center
Mon 07:11:00 AM 51.8245 164.0544 237° Southwest  Level FlightAware Approximate
Mon 07:12:00 AM 51.7553 163.8866 236° Southwest  Level FlightAware Approximate
Mon 07:12:05 AM 51.6500 163.6500 236° Southwest 466 536 37,000  Level Anchorage Center
Mon 07:13:00 AM 51.6858 163.7193 236° Southwest  Level FlightAware Approximate
Mon 07:14:00 AM 51.6160 163.5526 236° Southwest  Level FlightAware Approximate
Mon 07:15:00 AM 51.5457 163.3867 236° Southwest  Level FlightAware Approximate
Mon 07:16:00 AM 51.3515 162.9380 236° Southwest 466 536 37,000  Level FlightAware Transoceanic
Mon 07:17:00 AM 51.2762 162.7614 236° Southwest 466 536 37,000  Level FlightAware Transoceanic
Mon 07:18:00 AM 51.2181 162.6260 236° Southwest 466 536 37,000  Level FlightAware Transoceanic
Mon 07:19:00 AM 51.1452 162.4572 235° Southwest 466 536 37,000  Level FlightAware Transoceanic
Mon 07:20:00 AM 51.0721 162.2890 235° Southwest 466 536 37,000  Level FlightAware Transoceanic
Mon 07:21:00 AM 50.9988 162.1213 235° Southwest 466 536 37,000  Level FlightAware Transoceanic
Mon 07:22:00 AM 50.9252 161.9541 235° Southwest 466 536 37,000  Level FlightAware Transoceanic
Mon 07:23:00 AM 50.8514 161.7874 235° Southwest 466 536 37,000  Level FlightAware Transoceanic
Mon 07:24:00 AM 50.7774 161.6213 235° Southwest 466 536 37,000  Level FlightAware Transoceanic
Mon 07:25:00 AM 50.7031 161.4557 235° Southwest 466 536 37,000  Level FlightAware Transoceanic
Mon 07:26:00 AM 50.6286 161.2906 234° Southwest 466 536 37,000  Level FlightAware Transoceanic
Mon 07:27:00 AM 50.5538 161.1260 234° Southwest 466 536 37,000  Level FlightAware Transoceanic
Mon 07:28:00 AM 50.4789 160.9620 234° Southwest 466 536 37,000  Level FlightAware Transoceanic
Mon 07:29:00 AM 50.4037 160.7985 234° Southwest 466 536 37,000  Level FlightAware Transoceanic
Mon 07:30:00 AM 50.3282 160.6355 234° Southwest 466 536 37,000  Level FlightAware Transoceanic
Mon 07:31:00 AM 50.2526 160.4730 234° Southwest 466 536 37,000  Level FlightAware Transoceanic
Mon 07:31:41 AM 50.2000 160.3833 234° Southwest 479 551 37,000  Level Anchorage Center
Mon 07:32:00 AM 50.1767 160.3110 234° Southwest 466 536 37,000  Level FlightAware Transoceanic
Mon 07:33:00 AM 50.1006 160.1496 234° Southwest 466 536 37,000  Level FlightAware Transoceanic
Mon 07:34:00 AM 50.0242 159.9886 233° Southwest 466 536 37,000  Level FlightAware Transoceanic
Mon 07:35:00 AM 49.9477 159.8282 233° Southwest 466 536 37,000  Level FlightAware Transoceanic
Mon 07:36:00 AM 49.8709 159.6683 233° Southwest 466 536 37,000  Level FlightAware Transoceanic
Mon 07:37:00 AM 49.7863 159.4964 234° Southwest 479 551 37,000  Level FlightAware Transoceanic
Mon 07:38:00 AM 49.7167 159.3500 233° Southwest 479 551 37,000  Level FlightAware Transoceanic
Mon 07:39:00 AM 49.6356 159.1846 233° Southwest 479 551 37,000  Level FlightAware Transoceanic
Mon 07:40:00 AM 49.5544 159.0198 233° Southwest 479 551 37,000  Level FlightAware Transoceanic
Mon 07:41:00 AM 49.4729 158.8555 233° Southwest 479 551 37,000  Level FlightAware Transoceanic
Mon 07:42:00 AM 49.3912 158.6918 232° Southwest 479 551 37,000  Level FlightAware Transoceanic
Mon 07:43:00 AM 49.3092 158.5286 232° Southwest 479 551 37,000  Level FlightAware Transoceanic
Mon 07:44:00 AM 49.2270 158.3659 232° Southwest 479 551 37,000  Level FlightAware Transoceanic
Mon 07:45:00 AM 49.1446 158.2038 232° Southwest 479 551 37,000  Level FlightAware Transoceanic
Mon 07:46:00 AM 49.0619 158.0422 232° Southwest 479 551 37,000  Level FlightAware Transoceanic
Mon 07:47:00 AM 48.9791 157.8812 232° Southwest 479 551 37,000  Level FlightAware Transoceanic
Mon 07:48:00 AM 48.8960 157.7207 232° Southwest 479 551 37,000  Level FlightAware Transoceanic
Mon 07:49:00 AM 48.8127 157.5607 232° Southwest 479 551 37,000  Level FlightAware Transoceanic
Mon 07:50:00 AM 48.7291 157.4013 231° Southwest 479 551 37,000  Level FlightAware Transoceanic
Mon 07:51:00 AM 48.6454 157.2424 231° Southwest 479 551 37,000  Level FlightAware Transoceanic
Mon 07:52:00 AM 48.5614 157.0840 231° Southwest 479 551 37,000  Level FlightAware Transoceanic
Mon 07:53:00 AM 48.4772 156.9262 231° Southwest 479 551 37,000  Level FlightAware Transoceanic
Mon 07:54:00 AM 48.3928 156.7688 231° Southwest 479 551 37,000  Level FlightAware Transoceanic
Mon 07:55:00 AM 48.3082 156.6120 231° Southwest 479 551 37,000  Level FlightAware Transoceanic
Mon 07:56:00 AM 48.2234 156.4557 231° Southwest 479 551 37,000  Level FlightAware Transoceanic
Mon 07:57:00 AM 48.1383 156.3000 231° Southwest 479 551 37,000  Level FlightAware Transoceanic
Mon 07:58:00 AM 48.0531 156.1447 231° Southwest 479 551 37,000  Level FlightAware Transoceanic
Mon 07:59:00 AM 47.9676 155.9900 230° Southwest 479 551 37,000  Level FlightAware Transoceanic
Mon 08:00:00 AM 47.8820 155.8358 230° Southwest 479 551 37,000  Level FlightAware Transoceanic
Mon 08:01:00 AM 47.7961 155.6820 230° Southwest 479 551 37,000  Level FlightAware Transoceanic
Mon 08:02:00 AM 47.7100 155.5288 230° Southwest 479 551 37,000  Level FlightAware Transoceanic
Mon 08:03:00 AM 47.6237 155.3761 230° Southwest 479 551 37,000  Level FlightAware Transoceanic
Mon 08:04:00 AM 47.5373 155.2239 230° Southwest 479 551 37,000  Level FlightAware Transoceanic
Mon 08:05:00 AM 47.4506 155.0722 230° Southwest 479 551 37,000  Level FlightAware Transoceanic
Mon 08:06:00 AM 47.3637 154.9210 230° Southwest 479 551 37,000  Level FlightAware Transoceanic
Mon 08:07:00 AM 47.2766 154.7703 230° Southwest 479 551 37,000  Level FlightAware Transoceanic
Mon 08:08:00 AM 47.1893 154.6201 229° Southwest 479 551 37,000  Level FlightAware Transoceanic
Mon 08:09:00 AM 47.1019 154.4704 229° Southwest 479 551 37,000  Level FlightAware Transoceanic
Mon 08:10:00 AM 47.0142 154.3212 229° Southwest 479 551 37,000  Level FlightAware Transoceanic
Mon 08:11:00 AM 46.9263 154.1725 229° Southwest 479 551 37,000  Level FlightAware Transoceanic
Mon 08:12:00 AM 46.8383 154.0242 229° Southwest 479 551 37,000  Level FlightAware Transoceanic
Mon 08:13:00 AM 46.7501 153.8765 229° Southwest 479 551 37,000  Level FlightAware Transoceanic
Mon 08:14:00 AM 46.6616 153.7292 229° Southwest 479 551 37,000  Level FlightAware Transoceanic
Mon 08:15:00 AM 46.5730 153.5824 229° Southwest 479 551 37,000  Level FlightAware Transoceanic
Mon 08:16:00 AM 46.4842 153.4361 229° Southwest 479 551 37,000  Level FlightAware Transoceanic
Mon 08:17:00 AM 46.3952 153.2903 228° Southwest 479 551 37,000  Level FlightAware Transoceanic
Mon 08:18:00 AM 46.3060 153.1449 228° Southwest 479 551 37,000 30 Level FlightAware Transoceanic
Mon 08:19:00 AM 46.2231 153.0104 228° Southwest  Level FlightAware Approximate
Mon 08:20:00 AM 46.1400 152.8763 228° Southwest  Level FlightAware Approximate
Mon 08:21:00 AM 46.1460 152.8872 228° Southwest  Level FlightAware Approximate
Mon 08:22:00 AM 46.0622 152.7541 228° Southwest  Level FlightAware Approximate
Mon 08:23:00 AM 45.9783 152.6214 228° Southwest  Level FlightAware Approximate
Mon 08:24:00 AM 45.8942 152.4892 228° Southwest  Level FlightAware Approximate
Mon 08:25:00 AM 45.8100 152.3573 228° Southwest  Level FlightAware Approximate
Mon 08:26:00 AM 45.7256 152.2258 227° Southwest  Level FlightAware Approximate
Mon 08:27:00 AM 45.6411 152.0947 227° Southwest  Level FlightAware Approximate
Mon 08:28:00 AM 45.5564 151.9641 227° Southwest  Level FlightAware Approximate
Mon 08:29:00 AM 45.4716 151.8338 227° Southwest  Level FlightAware Approximate
Mon 08:30:00 AM 45.3866 151.7039 227° Southwest  Level FlightAware Approximate
Mon 08:31:00 AM 45.3015 151.5744 227° Southwest  Level FlightAware Approximate
Mon 08:32:00 AM 45.2163 151.4453 227° Southwest  Level FlightAware Approximate
Mon 08:33:00 AM 45.1308 151.3166 227° Southwest  Level FlightAware Approximate
Mon 08:34:00 AM 45.0453 151.1882 227° Southwest  Level FlightAware Approximate
Mon 08:35:00 AM 44.9596 151.0603 227° Southwest  Level FlightAware Approximate
Mon 08:36:00 AM 44.8737 150.9327 227° Southwest  Level FlightAware Approximate
Mon 08:37:00 AM 44.7878 150.8055 226° Southwest  Level FlightAware Approximate
Mon 08:38:00 AM 44.7016 150.6787 226° Southwest  Level FlightAware Approximate
Mon 08:39:00 AM 44.6154 150.5523 226° Southwest  Level FlightAware Approximate
Mon 08:40:00 AM 44.5290 150.4262 226° Southwest  Level FlightAware Approximate
Mon 08:41:00 AM 44.4425 150.3005 226° Southwest  Level FlightAware Approximate
Mon 08:42:00 AM 44.3558 150.1752 226° Southwest  Level FlightAware Approximate
Mon 08:43:00 AM 44.2690 150.0503 226° Southwest  Level FlightAware Approximate
Mon 08:44:00 AM 44.1820 149.9257 226° Southwest  Level FlightAware Approximate
Mon 08:45:00 AM 44.0949 149.8015 226° Southwest  Level FlightAware Approximate
Mon 08:46:00 AM 44.0077 149.6776 226° Southwest  Level FlightAware Approximate
Mon 08:47:00 AM 43.9204 149.5542 226° Southwest  Level FlightAware Approximate
Mon 08:48:00 AM 43.8329 149.4310 225° Southwest  Level FlightAware Approximate
Mon 08:49:00 AM 43.7453 149.3083 225° Southwest  Level FlightAware Approximate
Mon 08:50:00 AM 43.6575 149.1859 225° Southwest  Level FlightAware Approximate
Mon 08:50:02 AM 43.4010 148.8310 225° Southwest 481 554 38,000  Level FlightAware ADS-B
Mon 08:50:42 AM 43.3340 148.7390 225° Southwest 480 552 38,000  Level FlightAware ADS-B
Mon 08:51:27 AM 43.2630 148.6420 225° Southwest 479 551 38,000  Level FlightAware ADS-B
Mon 08:52:07 AM 43.2000 148.5560 225° Southwest 478 550 38,000  Level FlightAware ADS-B
Mon 08:54:00 AM 43.0331 148.3299 225° Southwest  Level FlightAware Approximate
Mon 08:54:27 AM 42.9820 148.2610 225° Southwest 478 550 38,000  Level FlightAware ADS-B
Mon 08:55:07 AM 42.9170 148.1740 224° Southwest 477 549 38,000  Level FlightAware ADS-B
Mon 08:55:52 AM 42.8470 148.0800 225° Southwest 477 549 38,000  Level FlightAware ADS-B
Mon 08:56:32 AM 42.7850 147.9970 225° Southwest 475 547 38,000  Level FlightAware ADS-B
Mon 08:57:17 AM 42.7130 147.9010 224° Southwest 472 543 38,000  Level FlightAware ADS-B
Mon 08:57:57 AM 42.6480 147.8150 224° Southwest 472 543 38,000  Level FlightAware ADS-B
Mon 08:58:37 AM 42.5870 147.7340 224° Southwest 471 542 38,000  Level FlightAware ADS-B
Mon 08:59:22 AM 42.5180 147.6430 224° Southwest 469 540 38,000  Level FlightAware ADS-B
Mon 09:00:02 AM 42.4560 147.5610 224° Southwest 467 537 38,000  Level FlightAware ADS-B
Mon 09:00:37 AM 42.4020 147.4910 224° Southwest 459 528 38,000  Level FlightAware ADS-B
Mon 09:03:00 AM 42.1901 147.2097 225° Southwest  Level FlightAware Approximate
Mon 09:04:00 AM 42.1011 147.0921 224° Southwest  Level FlightAware Approximate
Mon 09:05:00 AM 42.0119 146.9748 224° Southwest  Level FlightAware Approximate
Mon 09:06:00 AM 41.9227 146.8578 224° Southwest  Level FlightAware Approximate
Mon 09:07:00 AM 41.8326 146.7421 224° Southwest  Level FlightAware Approximate
Mon 09:08:00 AM 41.7424 146.6268 224° Southwest  Level FlightAware Approximate
Mon 09:09:00 AM 41.6521 146.5117 224° Southwest  Level FlightAware Approximate
Mon 09:10:00 AM 41.5617 146.3970 224° Southwest  Level FlightAware Approximate
Mon 09:11:00 AM 41.4712 146.2827 223° Southwest  Level FlightAware Approximate
Mon 09:12:00 AM 41.3806 146.1686 223° Southwest  Level FlightAware Approximate
Mon 09:13:00 AM 41.2898 146.0549 223° Southwest  Level FlightAware Approximate
Mon 09:14:00 AM 41.1989 145.9415 223° Southwest  Level FlightAware Approximate
Mon 09:15:00 AM 41.1080 145.8284 223° Southwest  Level FlightAware Approximate
Mon 09:16:00 AM 41.0169 145.7156 223° Southwest  Level FlightAware Approximate
Mon 09:17:00 AM 40.9257 145.6031 223° Southwest  Level FlightAware Approximate
Mon 09:17:32 AM 40.8330 145.4990 223° Southwest 461 531 38,000  Level FlightAware ADS-B
Mon 09:18:12 AM 40.7700 145.4220 223° Southwest 459 528 38,000  Level FlightAware ADS-B
Mon 09:18:57 AM 40.7000 145.3360 223° Southwest 447 514 38,000  Level FlightAware ADS-B
Mon 09:20:22 AM 40.5780 145.1870 223° Southwest 443 510 38,000  Level FlightAware ADS-B
Mon 09:20:52 AM 40.5570 145.1620 222° Southwest 443 510 38,000  Level FlightAware ADS-B
Mon 09:22:12 AM 40.4100 144.9820 223° Southwest 430 495 38,000  Level FlightAware ADS-B
Mon 09:22:52 AM 40.3710 144.8930 240° Southwest 415 478 38,000  Level FlightAware ADS-B
Mon 09:23:37 AM 40.3280 144.8000 239° Southwest 414 476 38,000  Level FlightAware ADS-B
Mon 09:24:17 AM 40.2870 144.7100 239° Southwest 414 476 38,000  Level FlightAware ADS-B
Mon 09:24:57 AM 40.2420 144.6150 238° Southwest 414 476 38,000  Level FlightAware ADS-B
Mon 09:25:42 AM 40.1970 144.5190 238° Southwest 417 480 38,000  Level FlightAware ADS-B
Mon 09:26:17 AM 40.1650 144.4510 238° Southwest 424 488 38,000  Level FlightAware ADS-B
Mon 09:27:02 AM 40.1240 144.3660 238° Southwest 424 488 38,000  Level FlightAware ADS-B
Mon 09:27:42 AM 40.0890 144.2920 238° Southwest 424 488 38,000  Level FlightAware ADS-B
Mon 09:28:32 AM 40.0450 144.1990 238° Southwest 424 488 38,000  Level FlightAware ADS-B
Mon 09:29:12 AM 40.0090 144.1260 237° Southwest 424 488 38,000  Level FlightAware ADS-B
Mon 09:29:52 AM 39.9740 144.0520 238° Southwest 424 488 38,000  Level FlightAware ADS-B
Mon 09:30:32 AM 39.9380 143.9780 238° Southwest 424 488 38,000  Level FlightAware ADS-B
Mon 09:31:12 AM 39.9030 143.9040 238° Southwest 424 488 38,000  Level FlightAware ADS-B
Mon 09:32:02 AM 39.8590 143.8120 238° Southwest 424 488 38,000  Level FlightAware ADS-B
Mon 09:32:42 AM 39.8240 143.7380 238° Southwest 424 488 38,000  Level FlightAware ADS-B
Mon 09:33:22 AM 39.7880 143.6650 237° Southwest 424 488 38,000  Level FlightAware ADS-B
Mon 09:34:02 AM 39.7530 143.5910 238° Southwest 424 488 38,000  Level FlightAware ADS-B
Mon 09:34:42 AM 39.7180 143.5180 238° Southwest 424 488 38,000  Level FlightAware ADS-B
Mon 09:35:32 AM 39.6730 143.4260 238° Southwest 424 488 38,000  Level FlightAware ADS-B
Mon 09:36:12 AM 39.5190 143.1450 235° Southwest 428 493 38,000  Level FlightAware ADS-B
Mon 09:36:52 AM 39.4770 143.0620 237° Southwest 432 497 38,000  Level FlightAware ADS-B
Mon 09:37:37 AM 39.4240 142.9600 236° Southwest 430 495 38,000  Level FlightAware ADS-B
Mon 09:38:17 AM 39.3800 142.8750 236° Southwest 424 488 38,000  Level FlightAware ADS-B
Mon 09:38:57 AM 39.3380 142.7940 236° Southwest 423 487 38,000  Level FlightAware ADS-B
Mon 09:39:42 AM 39.2870 142.6950 236° Southwest 422 486 38,000  Level FlightAware ADS-B
Mon 09:40:22 AM 39.2430 142.6100 236° Southwest 421 484 38,000  Level FlightAware ADS-B
Mon 09:41:07 AM 39.1940 142.5170 236° Southwest 417 480 38,000  Level FlightAware ADS-B
Mon 09:41:52 AM 39.1450 142.4240 236° Southwest 417 480 38,000  Level FlightAware ADS-B
Mon 09:42:32 AM 39.1010 142.3400 236° Southwest 416 479 38,000  Level FlightAware ADS-B
Mon 09:43:17 AM 39.0520 142.2470 236° Southwest 414 476 38,000  Level FlightAware ADS-B
Mon 09:44:02 AM 39.0070 142.1610 236° Southwest 414 476 38,000  Level FlightAware ADS-B
Mon 09:45:17 AM 38.9230 142.0040 236° Southwest 414 476 38,000  Level FlightAware ADS-B
Mon 09:46:02 AM 38.8730 141.9090 236° Southwest 416 479 38,000  Level FlightAware ADS-B
Mon 09:46:47 AM 38.8240 141.8160 236° Southwest 418 481 38,000  Level FlightAware ADS-B
Mon 09:47:27 AM 38.7790 141.7330 235° Southwest 423 487 38,000  Level FlightAware ADS-B
Mon 09:48:07 AM 38.7350 141.6510 235° Southwest 422 486 38,000  Level FlightAware ADS-B
Mon 09:48:52 AM 38.6850 141.5580 235° Southwest 421 484 38,000  Level FlightAware ADS-B
Mon 09:49:32 AM 38.6410 141.4770 235° Southwest 420 483 38,000  Level FlightAware ADS-B
Mon 09:50:12 AM 38.5960 141.3950 235° Southwest 420 483 38,000  Level FlightAware ADS-B
Mon 09:50:57 AM 38.5470 141.3030 236° Southwest 420 483 38,000  Level FlightAware ADS-B
Mon 09:51:37 AM 38.5020 141.2210 235° Southwest 421 484 38,000  Level FlightAware ADS-B
Mon 09:52:17 AM 38.4580 141.1400 235° Southwest 420 483 38,000  Level FlightAware ADS-B
Mon 09:53:02 AM 38.4090 141.0510 235° Southwest 410 472 38,000  Level FlightAware ADS-B
Mon 09:53:42 AM 38.3640 140.9690 235° Southwest 407 468 38,000  Level FlightAware ADS-B
Mon 09:54:27 AM 38.3150 140.8810 235° Southwest 403 464 38,000  Level FlightAware ADS-B
Mon 09:55:07 AM 38.2720 140.8030 235° Southwest 400 460 38,000  Level FlightAware ADS-B
Mon 09:55:47 AM 38.2300 140.7250 236° Southwest 398 458 38,000  Level FlightAware ADS-B
Mon 09:56:32 AM 38.1810 140.6380 234° Southwest 397 457 38,000  Level FlightAware ADS-B
Mon 09:57:12 AM 38.1420 140.5670 235° Southwest 400 460 38,000  Level FlightAware ADS-B
Mon 09:57:47 AM 38.1020 140.4940 235° Southwest 395 455 38,000  Level FlightAware ADS-B
Mon 09:58:37 AM 38.0520 140.4060 234° Southwest 395 455 38,000  Level FlightAware ADS-B
Mon 09:59:17 AM 38.0060 140.3230 235° Southwest 394 453 38,000  Level FlightAware ADS-B
Mon 10:00:12 AM 37.9490 140.2220 234° Southwest 396 456 38,000  Level FlightAware ADS-B
Mon 10:02:00 AM 37.9894 139.9421 280° West  Level FlightAware Approximate
Mon 10:03:00 AM 38.0115 139.7865 280° West  Level FlightAware Approximate
Mon 10:04:00 AM 37.9416 139.6556 263° West  Level Estimated
Mon 10:05:00 AM 37.9443 139.4976 271° West  Level FlightAware Approximate
Mon 10:06:00 AM 37.9467 139.3396 271° West  Level FlightAware Approximate
Mon 10:07:00 AM 37.9489 139.1816 271° West  Level FlightAware Approximate
Mon 10:08:00 AM 37.8773 139.0523 234° Southwest  Level Estimated
Mon 10:09:00 AM 37.8108 138.9189 238° Southwest  Level FlightAware Approximate
Mon 10:09:37 AM 37.3470 139.1660 238° Southwest 372 428 38,000  Level FlightAware ADS-B
Mon 10:10:17 AM 37.3060 139.0960 234° Southwest 370 426 38,000  Level FlightAware ADS-B
Mon 10:10:57 AM 37.2650 139.0260 234° Southwest 367 422 38,000  Level FlightAware ADS-B
Mon 10:11:42 AM 37.2190 138.9470 234° Southwest 366 421 38,000  Level FlightAware ADS-B
Mon 10:12:22 AM 37.1790 138.8780 234° Southwest 366 421 38,000  Level FlightAware ADS-B
Mon 10:13:07 AM 37.1330 138.8000 234° Southwest 366 421 38,000  Level FlightAware ADS-B
Mon 10:13:47 AM 37.0930 138.7310 234° Southwest 368 423 38,000 -1,036 Level FlightAware ADS-B
Mon 10:14:57 AM 37.0240 138.6140 234° Southwest 384 442 36,100 -1,091 Descending FlightAware ADS-B
Mon 10:15:37 AM 36.9810 138.5420 233° Southwest 382 440 36,000 -424 Descending FlightAware ADS-B
Mon 10:16:22 AM 36.9340 138.4620 234° Southwest 382 440 35,500 -1,341 Descending FlightAware ADS-B
Mon 10:17:02 AM 36.8910 138.3890 234° Southwest 386 444 34,100 -1,200 Descending FlightAware ADS-B
Mon 10:17:37 AM 36.8550 138.3280 234° Southwest 393 452 34,000 -71 Descending FlightAware ADS-B
Mon 10:18:27 AM 36.8020 138.2400 233° Southwest 392 451 34,000  Level FlightAware ADS-B
Mon 10:19:12 AM 36.7500 138.1530 233° Southwest 394 453 34,000  Level FlightAware ADS-B
Mon 10:19:52 AM 36.7060 138.0800 233° Southwest 399 459 34,000  Level FlightAware ADS-B
Mon 10:20:37 AM 36.6520 137.9900 233° Southwest 401 461 34,000  Level FlightAware ADS-B
Mon 10:21:27 AM 36.5970 137.8970 234° Southwest 402 463 34,000  Level FlightAware ADS-B
Mon 10:22:12 AM 36.5490 137.8170 233° Southwest 406 467 34,000  Level FlightAware ADS-B
Mon 10:23:07 AM 36.4880 137.7170 233° Southwest 407 468 34,000  Level FlightAware ADS-B
Mon 10:23:52 AM 36.4340 137.6290 233° Southwest 403 464 34,000  Level FlightAware ADS-B
Mon 10:24:32 AM 36.3900 137.5550 234° Southwest 400 460 34,000  Level FlightAware ADS-B
Mon 10:25:12 AM 36.3450 137.4810 233° Southwest 399 459 34,000  Level FlightAware ADS-B
Mon 10:25:57 AM 36.2940 137.3980 233° Southwest 402 463 34,000 282 Level FlightAware ADS-B
Mon 10:26:37 AM 36.2490 137.3240 233° Southwest 406 467 34,400 1,200 Climbing FlightAware ADS-B
Mon 10:27:22 AM 36.1980 137.2410 233° Southwest 403 464 35,700 1,765 Climbing FlightAware ADS-B
Mon 10:28:02 AM 36.1520 137.1670 232° Southwest 402 463 36,900 1,725 Climbing FlightAware ADS-B
Mon 10:28:42 AM 36.1070 137.0940 233° Southwest 399 459 38,000 776 Climbing FlightAware ADS-B
Mon 10:29:27 AM 36.0570 137.0120 233° Southwest 400 460 38,000  Level FlightAware ADS-B
Mon 10:30:07 AM 36.0120 136.9400 232° Southwest 396 456 38,000  Level FlightAware ADS-B
Mon 10:30:52 AM 35.9630 136.8600 233° Southwest 398 458 38,000  Level FlightAware ADS-B
Mon 10:31:32 AM 35.9170 136.7870 232° Southwest 396 456 38,000  Level FlightAware ADS-B
Mon 10:32:12 AM 35.8720 136.7140 233° Southwest 401 461 38,000  Level FlightAware ADS-B
Mon 10:32:57 AM 35.8210 136.6330 232° Southwest 402 463 38,000  Level FlightAware ADS-B
Mon 10:33:37 AM 35.7750 136.5590 233° Southwest 404 465 38,000  Level FlightAware ADS-B
Mon 10:34:17 AM 35.7280 136.4850 232° Southwest 405 466 38,000  Level FlightAware ADS-B
Mon 10:35:02 AM 35.6770 136.4030 233° Southwest 405 466 38,000  Level FlightAware ADS-B
Mon 10:35:42 AM 35.6310 136.3300 232° Southwest 405 466 38,000  Level FlightAware ADS-B
Mon 10:36:27 AM 35.5780 136.2460 232° Southwest 406 467 38,000  Level FlightAware ADS-B
Mon 10:37:07 AM 35.5320 136.1730 232° Southwest 403 464 38,000  Level FlightAware ADS-B
Mon 10:37:47 AM 35.4860 136.1000 232° Southwest 396 456 38,000  Level FlightAware ADS-B
Mon 10:38:32 AM 35.4350 136.0200 232° Southwest 395 455 38,000  Level FlightAware ADS-B
Mon 10:39:12 AM 35.3910 135.9500 232° Southwest 395 455 38,000 -353 Level FlightAware ADS-B
Mon 10:39:57 AM 35.3400 135.8710 232° Southwest 397 457 37,500 -1,059 Descending FlightAware ADS-B
Mon 10:40:37 AM 35.2960 135.8020 232° Southwest 381 438 36,500 -2,025 Descending FlightAware ADS-B
Mon 10:41:17 AM 35.2510 135.7310 232° Southwest 393 452 34,800 -1,765 Descending FlightAware ADS-B
Mon 10:42:02 AM 35.1990 135.6520 231° Southwest 398 458 34,000 -565 Descending FlightAware ADS-B
Mon 10:42:42 AM 35.1530 135.5800 232° Southwest 397 457 34,000  Level FlightAware ADS-B
Mon 10:43:22 AM 35.1090 135.5120 232° Southwest 396 456 34,000  Level FlightAware ADS-B
Mon 10:44:07 AM 35.0600 135.4360 232° Southwest 396 456 34,000  Level FlightAware ADS-B
Mon 10:44:47 AM 35.0110 135.3600 232° Southwest 398 458 34,000  Level FlightAware ADS-B
Mon 10:45:32 AM 34.9590 135.2800 232° Southwest 395 455 34,000  Level FlightAware ADS-B
Mon 10:46:17 AM 34.9070 135.2000 232° Southwest 398 458 34,000  Level FlightAware ADS-B
Mon 10:46:57 AM 34.8610 135.1290 232° Southwest 398 458 34,000  Level FlightAware ADS-B
Mon 10:47:32 AM 34.8240 135.0730 231° Southwest 400 460 34,000  Level FlightAware ADS-B
Mon 10:48:22 AM 34.7620 134.9780 232° Southwest 409 471 34,000  Level FlightAware ADS-B
Mon 10:49:02 AM 34.7140 134.9050 231° Southwest 410 472 34,000  Level FlightAware ADS-B
Mon 10:49:42 AM 34.6680 134.8350 231° Southwest 411 473 34,000  Level FlightAware ADS-B
Mon 10:50:27 AM 34.6150 134.7540 232° Southwest 412 474 34,000  Level FlightAware ADS-B
Mon 10:51:07 AM 34.5680 134.6830 231° Southwest 412 474 34,000  Level FlightAware ADS-B
Mon 10:51:52 AM 34.5140 134.6010 231° Southwest 411 473 34,000  Level FlightAware ADS-B
Mon 10:52:32 AM 34.4660 134.5240 233° Southwest 403 464 34,000  Level FlightAware ADS-B
Mon 10:53:12 AM 34.4240 134.4520 235° Southwest 409 471 34,000  Level FlightAware ADS-B
Mon 10:53:57 AM 34.3730 134.3690 233° Southwest 409 471 34,000 353 Level FlightAware ADS-B
Mon 10:54:37 AM 34.3280 134.2940 234° Southwest 411 473 34,500 1,553 Climbing FlightAware ADS-B
Mon 10:55:22 AM 34.2770 134.2130 233° Southwest 405 466 36,200 2,188 Climbing FlightAware ADS-B
Mon 10:56:02 AM 34.2320 134.1400 233° Southwest 392 451 37,600 1,350 Climbing FlightAware ADS-B
Mon 10:56:42 AM 34.1890 134.0690 234° Southwest 407 468 38,000 282 Climbing FlightAware ADS-B
Mon 10:57:27 AM 34.1380 133.9870 233° Southwest 413 475 38,000  Level FlightAware ADS-B
Mon 10:58:07 AM 34.0930 133.9130 234° Southwest 412 474 38,000  Level FlightAware ADS-B
Mon 10:58:47 AM 34.0470 133.8390 233° Southwest 411 473 38,000  Level FlightAware ADS-B
Mon 10:59:32 AM 33.9950 133.7560 233° Southwest 408 470 38,000  Level FlightAware ADS-B
Mon 11:00:12 AM 33.9510 133.6840 234° Southwest 408 470 38,000  Level FlightAware ADS-B
Mon 11:00:52 AM 33.9030 133.6080 233° Southwest 409 471 38,000  Level FlightAware ADS-B
Mon 11:01:37 AM 33.8520 133.5250 234° Southwest 411 473 38,000  Level FlightAware ADS-B
Mon 11:02:17 AM 33.8070 133.4530 233° Southwest 412 474 38,000  Level FlightAware ADS-B
Mon 11:03:02 AM 33.7550 133.3710 233° Southwest 410 472 38,000  Level FlightAware ADS-B
Mon 11:03:42 AM 33.7090 133.2980 233° Southwest 411 473 38,000  Level FlightAware ADS-B
Mon 11:04:22 AM 33.6640 133.2260 233° Southwest 409 471 38,000  Level FlightAware ADS-B
Mon 11:05:12 AM 33.6060 133.1340 233° Southwest 409 471 38,000  Level FlightAware ADS-B
Mon 11:05:52 AM 33.5620 133.0640 233° Southwest 408 470 38,000  Level FlightAware ADS-B
Mon 11:06:32 AM 33.5160 132.9920 233° Southwest 406 467 38,000  Level FlightAware ADS-B
Mon 11:07:17 AM 33.4650 132.9110 233° Southwest 406 467 38,000  Level FlightAware ADS-B
Mon 11:07:52 AM 33.4260 132.8510 232° Southwest 406 467 38,000  Level FlightAware ADS-B
Mon 11:08:37 AM 33.3730 132.7670 233° Southwest 408 470 38,000  Level FlightAware ADS-B
Mon 11:09:17 AM 33.3270 132.6960 232° Southwest 408 470 38,000  Level FlightAware ADS-B
Mon 11:09:57 AM 33.2820 132.6240 233° Southwest 408 470 38,000  Level FlightAware ADS-B
Mon 11:10:47 AM 33.2240 132.5340 232° Southwest 411 473 38,000  Level FlightAware ADS-B
Mon 11:11:27 AM 33.1780 132.4620 233° Southwest 412 474 38,000  Level FlightAware ADS-B
Mon 11:12:12 AM 33.1250 132.3800 232° Southwest 414 476 38,000  Level FlightAware ADS-B
Mon 11:12:52 AM 33.0790 132.3100 232° Southwest 415 478 38,000  Level FlightAware ADS-B
Mon 11:13:32 AM 33.0320 132.2360 233° Southwest 413 475 38,000  Level FlightAware ADS-B
Mon 11:14:17 AM 32.9790 132.1560 232° Southwest 410 472 38,000  Level FlightAware ADS-B
Mon 11:14:57 AM 32.9330 132.0840 233° Southwest 409 471 38,000  Level FlightAware ADS-B
Mon 11:15:37 AM 32.8870 132.0130 232° Southwest 407 468 38,000  Level FlightAware ADS-B
Mon 11:16:22 AM 32.8350 131.9340 232° Southwest 407 468 38,000  Level FlightAware ADS-B
Mon 11:17:02 AM 32.7890 131.8630 232° Southwest 407 468 38,000  Level FlightAware ADS-B
Mon 11:17:42 AM 32.7430 131.7920 232° Southwest 409 471 38,000  Level FlightAware ADS-B
Mon 11:18:27 AM 32.6900 131.7130 231° Southwest 411 473 38,000  Level FlightAware ADS-B
Mon 11:19:07 AM 32.6430 131.6410 232° Southwest 413 475 38,000  Level FlightAware ADS-B
Mon 11:19:52 AM 32.5900 131.5610 232° Southwest 414 476 38,000  Level FlightAware ADS-B
Mon 11:20:32 AM 32.5430 131.4890 232° Southwest 413 475 38,000  Level FlightAware ADS-B
Mon 11:21:12 AM 32.4960 131.4180 232° Southwest 413 475 38,000  Level FlightAware ADS-B
Mon 11:21:57 AM 32.4440 131.3380 232° Southwest 412 474 38,000  Level FlightAware ADS-B
Mon 11:22:37 AM 32.3970 131.2670 232° Southwest 411 473 38,000  Level FlightAware ADS-B
Mon 11:23:17 AM 32.3490 131.1960 231° Southwest 413 475 38,000  Level FlightAware ADS-B
Mon 11:23:47 AM 32.3140 131.1430 232° Southwest 414 476 38,000  Level FlightAware ADS-B
Mon 11:24:27 AM 32.2660 131.0720 231° Southwest 417 480 38,000  Level FlightAware ADS-B
Mon 11:25:07 AM 32.2190 131.0010 232° Southwest 417 480 38,000  Level FlightAware ADS-B
Mon 11:25:52 AM 32.1640 130.9200 231° Southwest 418 481 38,000  Level FlightAware ADS-B
Mon 11:26:37 AM 32.1110 130.8400 232° Southwest 421 484 38,000  Level FlightAware ADS-B
Mon 11:27:17 AM 32.0650 130.7720 231° Southwest 421 484 38,000  Level FlightAware ADS-B
Mon 11:28:02 AM 32.0090 130.6890 232° Southwest 421 484 38,000  Level FlightAware ADS-B
Mon 11:28:42 AM 31.9610 130.6180 231° Southwest 422 486 38,000  Level FlightAware ADS-B
Mon 11:29:22 AM 31.9150 130.5500 231° Southwest 423 487 38,000  Level FlightAware ADS-B
Mon 11:30:07 AM 31.8580 130.4660 231° Southwest 423 487 38,000  Level FlightAware ADS-B
Mon 11:30:47 AM 31.8080 130.3920 232° Southwest 424 488 38,000  Level FlightAware ADS-B
Mon 11:31:32 AM 31.7540 130.3120 232° Southwest 427 491 38,000  Level FlightAware ADS-B
Mon 11:32:12 AM 31.7050 130.2400 231° Southwest 428 493 38,000  Level FlightAware ADS-B
Mon 11:32:57 AM 31.6490 130.1580 231° Southwest 426 490 38,000  Level FlightAware ADS-B
Mon 11:33:37 AM 31.6000 130.0870 231° Southwest 426 490 38,000  Level FlightAware ADS-B
Mon 11:34:17 AM 31.5540 130.0200 231° Southwest 425 489 38,000  Level FlightAware ADS-B
Mon 11:35:02 AM 31.4960 129.9350 231° Southwest 425 489 38,000  Level FlightAware ADS-B
Mon 11:35:47 AM 31.4410 129.8560 231° Southwest 427 491 38,000  Level FlightAware ADS-B
Mon 11:36:27 AM 31.3900 129.7820 231° Southwest 427 491 38,000  Level FlightAware ADS-B
Mon 11:37:07 AM 31.3400 129.7100 231° Southwest 425 489 38,000  Level FlightAware ADS-B
Mon 11:37:52 AM 31.2850 129.6290 232° Southwest 425 489 38,000  Level FlightAware ADS-B
Mon 11:38:27 AM 31.2440 129.5710 230° Southwest 425 489 38,000  Level FlightAware ADS-B
Mon 11:39:07 AM 31.1970 129.5030 231° Southwest 424 488 38,000  Level FlightAware ADS-B
Mon 11:40:02 AM 31.1250 129.4000 231° Southwest 424 488 38,000  Level FlightAware ADS-B
Mon 11:40:47 AM 31.0750 129.3280 231° Southwest 424 488 38,000  Level FlightAware ADS-B
Mon 11:41:37 AM 31.0230 129.2530 231° Southwest 424 488 38,000  Level FlightAware ADS-B
Mon 11:42:07 AM 30.9910 129.2070 231° Southwest 424 488 38,000  Level FlightAware ADS-B
Mon 11:42:57 AM 30.9390 129.1320 231° Southwest 424 488 38,000  Level FlightAware ADS-B
Mon 11:43:37 AM 30.8970 129.0710 231° Southwest 424 488 38,000  Level FlightAware ADS-B
Mon 11:44:17 AM 30.8550 129.0110 231° Southwest 424 488 38,000  Level FlightAware ADS-B
Mon 11:44:57 AM 30.8130 128.9510 231° Southwest 424 488 38,000  Level FlightAware ADS-B
Mon 11:45:47 AM 30.7600 128.8750 231° Southwest 424 488 38,000  Level FlightAware ADS-B
Mon 11:46:27 AM 30.7180 128.8150 231° Southwest 424 488 38,000  Level FlightAware ADS-B
Mon 11:47:07 AM 30.6760 128.7550 231° Southwest 424 488 38,000  Level FlightAware ADS-B
Mon 11:47:47 AM 30.6340 128.6940 231° Southwest 424 488 38,000  Level FlightAware ADS-B
Mon 11:48:27 AM 30.5930 128.6340 232° Southwest 424 488 38,000  Level FlightAware ADS-B
Mon 11:49:17 AM 30.5400 128.5590 231° Southwest 424 488 38,000  Level FlightAware ADS-B
Mon 11:49:57 AM 30.4980 128.4990 231° Southwest 424 488 38,000 42 Level FlightAware ADS-B
Mon 11:52:00 AM 30.3391 128.2670 232° Southwest  Level Estimated
Mon 11:53:00 AM 30.2615 128.1541 231° Southwest  Level Estimated
Mon 11:54:00 AM 30.1838 128.0414 231° Southwest  Level Estimated
Mon 11:55:00 AM 30.1059 127.9288 231° Southwest  Level Estimated
Mon 11:56:00 AM 30.0280 127.8165 231° Southwest  Level Estimated
Mon 11:57:00 AM 29.9500 127.7043 231° Southwest  Level Estimated
Mon 11:58:00 AM 29.8719 127.5923 231° Southwest  Level Estimated
Mon 11:59:00 AM 29.7936 127.4804 231° Southwest  Level Estimated
Mon 12:00:00 PM 29.7153 127.3688 231° Southwest  Level Estimated
Mon 12:01:00 PM 29.6369 127.2573 231° Southwest  Level Estimated
Mon 12:02:00 PM 29.5585 127.1460 231° Southwest  Level Estimated
Mon 12:03:00 PM 29.4799 127.0348 231° Southwest  Level Estimated
Mon 12:04:00 PM 29.4012 126.9239 231° Southwest  Level Estimated
Mon 12:05:00 PM 29.3224 126.8131 231° Southwest  Level Estimated
Mon 12:06:00 PM 29.2435 126.7024 231° Southwest  Level Estimated
Mon 12:07:00 PM 29.1646 126.5920 231° Southwest  Level Estimated
Mon 12:08:00 PM 29.0856 126.4817 231° Southwest  Level Estimated
Mon 12:09:00 PM 29.0064 126.3716 231° Southwest  Level Estimated
Mon 12:10:00 PM 28.9272 126.2616 231° Southwest  Level Estimated
Mon 12:11:00 PM 28.8479 126.1519 230° Southwest  Level Estimated
Mon 12:12:00 PM 28.7685 126.0423 230° Southwest  Level Estimated
Mon 12:13:00 PM 28.6890 125.9328 230° Southwest  Level Estimated
Mon 12:14:00 PM 28.6094 125.8235 230° Southwest  Level Estimated
Mon 12:15:00 PM 28.5298 125.7144 230° Southwest  Level Estimated
Mon 12:16:00 PM 28.4500 125.6055 230° Southwest  Level Estimated
Mon 12:17:00 PM 28.3702 125.4967 230° Southwest  Level Estimated
Mon 12:18:00 PM 28.2903 125.3881 230° Southwest  Level Estimated
Mon 12:19:00 PM 28.2103 125.2796 230° Southwest  Level Estimated
Mon 12:20:00 PM 28.1301 125.1713 230° Southwest  Level Estimated
Mon 12:21:00 PM 28.0500 125.0632 230° Southwest  Level Estimated
Mon 12:22:00 PM 27.9697 124.9552 230° Southwest  Level Estimated
Mon 12:23:00 PM 27.8894 124.8474 230° Southwest  Level Estimated
Mon 12:24:00 PM 27.8089 124.7398 230° Southwest  Level Estimated
Mon 12:25:00 PM 27.7284 124.6323 230° Southwest  Level Estimated
Mon 12:26:00 PM 27.6478 124.5249 230° Southwest  Level Estimated
Mon 12:27:00 PM 27.5671 124.4178 230° Southwest  Level Estimated
Mon 12:28:00 PM 27.4864 124.3108 230° Southwest  Level Estimated
Mon 12:29:00 PM 27.4055 124.2039 230° Southwest  Level Estimated
Mon 12:30:00 PM 27.3246 124.0972 230° Southwest  Level Estimated
Mon 12:31:00 PM 27.2436 123.9906 229° Southwest  Level Estimated
Mon 12:32:00 PM 27.1625 123.8842 229° Southwest  Level Estimated
Mon 12:33:00 PM 27.0813 123.7780 229° Southwest  Level Estimated
Mon 12:34:00 PM 27.0001 123.6719 229° Southwest  Level Estimated
Mon 12:35:00 PM 26.9187 123.5660 229° Southwest  Level Estimated
Mon 12:36:00 PM 26.8373 123.4602 229° Southwest  Level Estimated
Mon 12:36:52 PM 26.6910 123.4700 229° Southwest 433 498 40,000  Level FlightAware ADS-B
Mon 12:37:00 PM 26.7558 123.3546 229° Southwest  Level Estimated
Mon 12:37:37 PM 26.6310 123.3910 230° Southwest 432 497 40,000  Level FlightAware ADS-B
Mon 12:38:17 PM 26.5810 123.3250 230° Southwest 432 497 40,000  Level FlightAware ADS-B
Mon 12:38:57 PM 26.5270 123.2550 229° Southwest 432 497 40,000  Level FlightAware ADS-B
Mon 12:39:42 PM 26.4700 123.1800 230° Southwest 431 496 40,000 -353 Level FlightAware ADS-B
Mon 12:40:22 PM 26.4180 123.1120 230° Southwest 432 497 39,500 -1,694 Descending FlightAware ADS-B
Mon 12:41:07 PM 26.3580 123.0340 229° Southwest 437 503 37,600 -2,965 Descending FlightAware ADS-B
Mon 12:41:47 PM 26.3070 122.9680 229° Southwest 447 514 35,300 -3,300 Descending FlightAware ADS-B
Mon 12:42:27 PM 26.2510 122.8940 230° Southwest 448 516 33,200 -2,682 Descending FlightAware ADS-B
Mon 12:43:12 PM 26.1930 122.8160 230° Southwest 435 501 31,500 -2,329 Descending FlightAware ADS-B
Mon 12:43:52 PM 26.1420 122.7490 230° Southwest 430 495 29,900 -2,475 Descending FlightAware ADS-B
Mon 12:44:32 PM 26.0900 122.6800 230° Southwest 423 487 28,200 -2,259 Descending FlightAware ADS-B
Mon 12:45:17 PM 26.0350 122.6090 229° Southwest 410 472 26,700 -1,906 Descending FlightAware ADS-B
Mon 12:45:57 PM 25.9870 122.5450 230° Southwest 396 456 25,500 -2,259 Descending FlightAware ADS-B
Mon 12:46:42 PM 25.9340 122.4760 230° Southwest 396 456 23,500 -2,682 Descending FlightAware ADS-B
Mon 12:47:22 PM 25.8840 122.4130 229° Southwest 393 452 21,700 -2,550 Descending FlightAware ADS-B
Mon 12:48:02 PM 25.8370 122.3550 228° Southwest 387 445 20,100 -2,329 Descending FlightAware ADS-B
Mon 12:48:47 PM 25.7830 122.2870 229° Southwest 377 434 18,400 -2,188 Descending FlightAware ADS-B
Mon 12:49:27 PM 25.7370 122.2300 228° Southwest 369 425 17,000 -1,906 Descending FlightAware ADS-B
Mon 12:50:12 PM 25.6910 122.1680 231° Southwest 352 405 15,700 -1,624 Descending FlightAware ADS-B
Mon 12:50:52 PM 25.6540 122.1100 235° Southwest 336 387 14,700 -1,650 Descending FlightAware ADS-B
Mon 12:51:32 PM 25.6190 122.0500 237° Southwest 332 382 13,500 -1,765 Descending FlightAware ADS-B
Mon 12:52:17 PM 25.5820 121.9870 237° Southwest 325 374 12,200 -1,482 Descending FlightAware ADS-B
Mon 12:52:57 PM 25.5500 121.9330 237° Southwest 309 356 11,400 -1,059 Descending FlightAware ADS-B
Mon 12:53:42 PM 25.5150 121.8760 236° Southwest 285 328 10,700 -847 Descending FlightAware ADS-B
Mon 12:54:22 PM 25.4880 121.8310 236° Southwest 268 308 10,200 -1,114 Descending FlightAware ADS-B
Mon 12:54:52 PM 25.4670 121.7970 236° Southwest 269 310 9,400 -1,418 Descending FlightAware ADS-B
Mon 12:55:17 PM 25.4490 121.7670 236° Southwest 268 308 8,900 -1,309 Descending FlightAware ADS-B
Mon 12:55:47 PM 25.4290 121.7330 237° Southwest 265 305 8,200 -1,309 Descending FlightAware ADS-B
Mon 12:56:12 PM 25.4120 121.7060 235° Southwest 263 303 7,700 -1,309 Descending FlightAware ADS-B
Mon 12:56:42 PM 25.3910 121.6700 237° Southwest 261 300 7,000 -1,300 Descending FlightAware ADS-B
Mon 12:57:12 PM 25.3710 121.6370 236° Southwest 257 296 6,400 -1,200 Descending FlightAware ADS-B
Mon 12:57:37 PM 25.3560 121.6120 236° Southwest 253 291 5,900 -1,091 Descending FlightAware ADS-B
Mon 12:58:07 PM 25.3360 121.5790 236° Southwest 245 282 5,400 -800 Descending FlightAware ADS-B
Mon 12:58:22 PM 25.3270 121.5650 235° Southwest 237 273 5,300 -750 Descending FlightAware ADS-B
Mon 12:58:47 PM 25.3120 121.5400 236° Southwest 224 258 4,900 -545 Descending FlightAware ADS-B
Mon 12:59:17 PM 25.2960 121.5130 237° Southwest 201 231 4,800 -133 Descending FlightAware ADS-B
Mon 12:59:32 PM 25.2880 121.4990 238° Southwest 189 217 4,800  Level FlightAware ADS-B
Mon 12:59:57 PM 25.2760 121.4800 235° Southwest 184 212 4,800  Level FlightAware ADS-B
Mon 01:00:27 PM 25.2620 121.4570 236° Southwest 184 212 4,800 -109 Level FlightAware ADS-B
Mon 01:00:52 PM 25.2480 121.4390 229° Southwest 185 213 4,700 -667 Descending FlightAware ADS-B
Mon 01:01:12 PM 25.2360 121.4240 229° Southwest 180 207 4,300 -1,029 Descending FlightAware ADS-B
Mon 01:01:27 PM 25.2290 121.4150 229° Southwest 174 200 4,100 -800 Descending FlightAware ADS-B
Mon 01:01:57 PM 25.2140 121.3960 229° Southwest 156 180 3,700 -873 Descending FlightAware ADS-B
Mon 01:02:22 PM 25.2020 121.3800 230° Southwest 155 178 3,300 -873 Descending FlightAware ADS-B
Mon 01:02:52 PM 25.1880 121.3620 229° Southwest 155 178 2,900 -800 Descending FlightAware ADS-B
Mon 01:03:22 PM 25.1740 121.3450 228° Southwest 153 176 2,500 -873 Descending FlightAware ADS-B
Mon 01:03:47 PM 25.1620 121.3300 229° Southwest 154 177 2,100 -873 Descending FlightAware ADS-B
Mon 01:04:17 PM 25.1480 121.3120 229° Southwest 146 168 1,700 -800 Descending FlightAware ADS-B
Mon 01:04:32 PM 25.1410 121.3030 229° Southwest 144 166 1,500 -750 Descending FlightAware ADS-B
Mon 01:04:57 PM 25.1310 121.2900 230° Southwest 144 166 1,200 -655 Descending FlightAware ADS-B
Mon 01:05:27 PM 25.1180 121.2730 230° Southwest 143 165 900 -667 Descending FlightAware ADS-B
Mon 01:05:42 PM 25.1110 121.2650 226° Southwest 144 166 700 -900 Descending FlightAware ADS-B
Mon 01:06:07 PM 25.1000 121.2500 231° Southwest 151 174 300 -960 Descending FlightAware ADS-B

Login

Don't have an account? Register now (free) for customized features, flight alerts, and more!